Terminal Aerodrome Forecast
Issued by NWS Grand Forks, ND

Home | Current Version | Previous Version | Text Only | Print | Product List | Glossary On
Versions: 1 2 3 4 5 6 7 8 9 10 11 12 13 14 15 16 17 18 19 20 21 22 23 24
000
FTUS43 KFGF 061419 AAA
TAFGFK
TAF AMD
KGFK 061419Z 0614/0712 32018G28KT 1/2SM -SN BLSN OVC008
     FM061600 32022G33KT 1/4SM -SN BLSN OVC005
     FM062100 31028G40KT 1/4SM -SN BLSN OVC010
     FM070300 31027G38KT 2SM BLSN OVC015=

USA.gov is the U.S. government's official web portal to all federal, state and local government web resources and services.